Grovespring, Missouri
Current Conditions -  °F | °C
As of 3:58 AM on Thursday 27 Nov 2014 (Local Time) from KTBN Reporting Station
Overcast Overcast  
Wind Chill: 22°   Ceiling: 900
Heat Index: 31°   Visibility: 10mi
Dew Point: 29°   Wind: 10mph
Humidity: 94%   Direction: 310°NW
Pressure: 30.37"   Gusts: NA
Location:  37.4°N, 92.61°W
Report Text: KTBN 270958Z AUTO 31009KT 10SM OVC009 M01/M02 A3037 RMK AO2 SLP297 T10071016
Loading
Personal Weather Stations






























Interactive Weather Map New forecast layout! Learn more

10-Day Weather Forecast

Advertisements
Track Severe Weather on mobile